• Join FlightAware (Why Join?)
  • Login
  • US Flag 
Gobble Gobble! 
08:32AM EST


 

Airport Tracker/Info


-or-


 

Live Flight TrackerFlight Track Log ✈ UPS2054 ✈ 26-Sep-2013 ✈ KSDF - KMHT

Flight Track Log - Related Links

Times and Time Zones

All times are in EDT time to prevent confusion due to time zone crossing. See the UPS2054 flight status page for this flight to view local times or setup timezone preferences in your user account.

Time Position Orientation Groundspeed Altitude Reporting Facility
EDT Latitude Longitude Course Direction KTS MPH feet Rate Location/Type
04:56PM 38.1630 -85.7410 180° South 182 209 600  Level FlightAware
04:57PM 38.1440 -85.7360 168° South 182 209 1,700 2,220 Climbing FlightAware
04:57PM 38.1210 -85.7320 172° South 214 246 2,400 1,920 Climbing FlightAware
04:57PM 38.1050 -85.7320 180° South 227 261 3,000 2,400 Climbing FlightAware
04:58PM 38.0800 -85.7240 166° South 241 277 4,000 2,460 Climbing FlightAware
04:58PM 38.0740 -85.7190 147° Southeast 242 278 4,300 3,000 Climbing FlightAware
04:58PM 38.0670 -85.7080 129° Southeast 244 281 4,800 3,180 Climbing FlightAware
04:58PM 38.0650 -85.7030 117° Southeast 244 281 5,000 2,460 Climbing FlightAware
04:58PM 38.0630 -85.6930 104° East 249 287 5,300 1,980 Climbing FlightAware
04:58PM 38.0620 -85.6810 96° East 255 293 5,600 2,760 Climbing FlightAware
04:59PM 38.0690 -85.6460 76° East 261 300 6,800 3,180 Climbing FlightAware
04:59PM 38.0720 -85.6310 76° East 268 308 7,300 2,760 Climbing FlightAware
04:59PM 38.0730 -85.6050 87° East 276 318 8,000 2,820 Climbing FlightAware
05:00PM 38.0740 -85.5720 88° East 282 325 9,000 2,640 Climbing FlightAware
05:00PM 38.0740 -85.5490 90° East 287 330 9,500 1,260 Climbing FlightAware
05:00PM 38.0740 -85.5030 90° East 293 337 9,900 960 Climbing FlightAware
05:01PM 38.0730 -85.4450 91° East 308 354 10,500 1,380 Climbing FlightAware
05:01PM 38.0730 -85.3710 90° East 348 400 11,600 2,460 Climbing FlightAware
05:02PM 38.0710 -85.3040 92° East 363 418 13,400 3,300 Climbing FlightAware
05:03PM 38.0630 -85.2230 97° East 381 438 15,400 3,120 Climbing FlightAware
05:03PM 38.0520 -85.1470 100° East 391 450 17,200 3,120 Climbing FlightAware
05:04PM 38.0410 -85.0630 99° East 400 460 19,100 3,000 Climbing FlightAware
05:04PM 38.0310 -84.9860 99° East 410 472 20,700 2,640 Climbing FlightAware
05:05PM 38.0210 -84.9030 99° East 420 483 22,200 2,520 Climbing FlightAware
05:05PM 38.0100 -84.8150 99° East 430 495 23,700 2,460 Climbing FlightAware
05:06PM 38.0000 -84.7300 98° East 441 507 25,000 2,100 Climbing FlightAware
05:07PM 37.9880 -84.6360 99° East 455 524 26,200 2,040 Climbing FlightAware
05:07PM 37.9750 -84.5420 100° East 464 534 27,500 1,920 Climbing FlightAware
05:08PM 37.9760 -84.4120 89° East 460 529 28,900 1,020 Climbing FlightAware
05:09PM 37.9910 -84.3070 80° East 461 531 29,000 60 Climbing FlightAware
05:09PM 38.0060 -84.2130 79° East 458 527 29,000  Level FlightAware
05:10PM 38.0210 -84.1170 79° East 457 526 29,000 900 Level FlightAware
05:11PM 38.0360 -84.0210 79° East 462 532 30,100 2,100 Climbing FlightAware
05:11PM 38.0480 -83.9380 80° East 461 531 31,400 2,400 Climbing FlightAware
05:12PM 38.0620 -83.8430 79° East 455 524 32,800 2,160 Climbing FlightAware
05:12PM 38.0750 -83.7580 79° East 454 522 33,900 1,560 Climbing FlightAware
05:13PM 38.0890 -83.6630 79° East 464 534 34,600 1,320 Climbing FlightAware
05:13PM 38.1010 -83.5760 80° East 464 534 35,400 1,620 Climbing FlightAware
05:14PM 38.1150 -83.4800 79° East 458 527 36,500 1,260 Climbing FlightAware
05:15PM 38.1290 -83.3820 80° East 459 528 37,000 420 Climbing FlightAware
05:15PM 38.1420 -83.2930 79° East 459 528 37,000  Level FlightAware
05:16PM 38.1550 -83.2010 80° East 460 529 37,000  Level FlightAware
05:16PM 38.1606 -83.1636 79° East 460 529 37,000  Level FlightAware ADS-B
05:16PM 38.1729 -83.0767 80° East 461 531 37,000  Level FlightAware ADS-B
05:17PM 38.1920 -82.9953 73° East 459 528 37,000  Level FlightAware ADS-B
05:17PM 38.2007 -82.9719 65° Northeast 449 517 37,000  Level FlightAware ADS-B
05:18PM 38.2600 -82.8620 55° Northeast 446 513 37,000  Level FlightAware
05:19PM 38.3060 -82.7860 52° Northeast 449 517 37,000  Level FlightAware
05:19PM 38.3510 -82.7090 53° Northeast 449 517 37,000  Level FlightAware
05:20PM 38.3930 -82.6400 52° Northeast 449 517 37,000  Level FlightAware
05:20PM 38.4360 -82.5680 53° Northeast 449 517 37,000  Level FlightAware
05:21PM 38.4800 -82.4950 52° Northeast 450 518 37,000  Level FlightAware
05:22PM 38.5260 -82.4160 53° Northeast 452 520 37,000  Level FlightAware
05:22PM 38.5710 -82.3410 52° Northeast 452 520 37,000  Level FlightAware
05:23PM 38.6130 -82.2690 53° Northeast 453 521 37,000  Level FlightAware
05:23PM 38.6580 -82.1930 53° Northeast 455 524 37,000  Level FlightAware
05:24PM 38.6990 -82.1240 53° Northeast 455 524 37,000  Level FlightAware
05:24PM 38.7470 -82.0400 54° Northeast 456 525 37,000  Level FlightAware
05:25PM 38.7920 -81.9610 54° Northeast 457 526 37,000  Level FlightAware
05:26PM 38.8350 -81.8860 54° Northeast 457 526 37,000  Level FlightAware
05:26PM 38.8770 -81.8120 54° Northeast 457 526 37,000  Level FlightAware
05:27PM 38.9240 -81.7290 54° Northeast 456 525 37,000  Level FlightAware
05:27PM 38.9610 -81.6620 55° Northeast 457 526 37,000  Level FlightAware
05:28PM 39.0050 -81.5850 54° Northeast 455 524 37,000  Level FlightAware
05:29PM 39.0520 -81.5020 54° Northeast 454 522 37,000  Level FlightAware
05:29PM 39.0900 -81.4330 55° Northeast 452 520 37,000  Level FlightAware
05:30PM 39.1340 -81.3550 54° Northeast 450 518 37,000  Level FlightAware
05:30PM 39.1800 -81.2730 54° Northeast 447 514 37,000  Level FlightAware
05:31PM 39.2180 -81.2030 55° Northeast 445 512 37,000  Level FlightAware
05:31PM 39.2610 -81.1260 54° Northeast 443 510 37,000  Level FlightAware
05:32PM 39.3120 -81.0350 54° Northeast 439 505 37,000  Level FlightAware
05:33PM 39.3530 -80.9610 54° Northeast 437 503 37,000  Level FlightAware
05:33PM 39.3930 -80.8880 55° Northeast 437 503 37,000  Level FlightAware
05:34PM 39.4310 -80.8190 54° Northeast 434 499 37,000  Level FlightAware
05:34PM 39.4750 -80.7380 55° Northeast 433 498 37,000  Level FlightAware
05:35PM 39.5130 -80.6700 54° Northeast 433 498 37,000  Level FlightAware
05:36PM 39.5560 -80.5900 55° Northeast 433 498 37,000  Level FlightAware
05:36PM 39.5940 -80.5210 54° Northeast 432 497 37,000  Level FlightAware
05:37PM 39.6370 -80.4410 55° Northeast 432 497 37,000  Level FlightAware
05:37PM 39.6780 -80.3660 55° Northeast 432 497 37,000  Level FlightAware
05:38PM 39.7000 -80.3080 64° Northeast 438 504 37,000  Level FlightAware
05:39PM 39.7300 -80.1930 71° East 439 505 37,000  Level FlightAware
05:39PM 39.7570 -80.0990 69° East 437 503 37,000  Level FlightAware
05:40PM 39.7890 -80.0260 60° Northeast 434 499 37,000  Level FlightAware
05:40PM 39.8320 -79.9510 53° Northeast 435 501 37,000  Level FlightAware
05:41PM 39.8740 -79.8750 54° Northeast 435 501 37,000  Level FlightAware
05:42PM 39.9130 -79.8080 53° Northeast 434 499 37,000  Level FlightAware
05:42PM 39.9560 -79.7320 54° Northeast 434 499 37,000  Level FlightAware
05:43PM 39.9990 -79.6570 53° Northeast 434 499 37,000  Level FlightAware
05:43PM 40.0400 -79.5830 54° Northeast 434 499 37,000  Level FlightAware
05:44PM 40.0820 -79.5100 53° Northeast 435 501 37,000  Level FlightAware
05:44PM 40.1260 -79.4320 54° Northeast 435 501 37,000  Level FlightAware
05:45PM 40.1640 -79.3640 54° Northeast 435 501 37,000  Level FlightAware
05:46PM 40.2060 -79.2890 54° Northeast 435 501 37,000  Level FlightAware
05:46PM 40.2490 -79.2120 54° Northeast 435 501 37,000  Level FlightAware
05:47PM 40.2910 -79.1360 54° Northeast 436 502 37,000  Level FlightAware
05:47PM 40.3300 -79.0670 53° Northeast 437 503 37,000  Level FlightAware
05:48PM 40.3720 -78.9910 54° Northeast 438 504 37,000  Level FlightAware
05:49PM 40.4150 -78.9130 54° Northeast 439 505 37,000  Level FlightAware
05:49PM 40.4530 -78.8440 54° Northeast 439 505 37,000  Level FlightAware
05:50PM 40.4960 -78.7670 54° Northeast 439 505 37,000  Level FlightAware
05:50PM 40.5410 -78.6850 54° Northeast 439 505 37,000  Level FlightAware
05:51PM 40.5870 -78.5990 55° Northeast 440 506 37,000  Level FlightAware
05:52PM 40.6270 -78.5270 54° Northeast 440 506 37,000  Level FlightAware
05:52PM 40.6850 -78.4210 54° Northeast 440 506 37,000  Level FlightAware
05:53PM 40.7250 -78.3470 54° Northeast 440 506 37,000  Level FlightAware
05:54PM 40.7730 -78.2580 55° Northeast 441 507 37,000  Level FlightAware
05:54PM 40.8150 -78.1810 54° Northeast 441 507 37,000  Level FlightAware
05:55PM 40.8590 -78.1000 54° Northeast 441 507 37,000  Level FlightAware
05:56PM 40.9090 -78.0040 55° Northeast 442 509 37,000  Level FlightAware
05:56PM 40.9440 -77.9310 58° Northeast 442 509 37,000  Level FlightAware
05:57PM 40.9760 -77.8580 60° Northeast 442 509 37,000  Level FlightAware
05:57PM 41.0140 -77.7740 59° Northeast 442 509 37,000  Level FlightAware
05:58PM 41.0650 -77.6580 60° Northeast 441 507 37,000  Level FlightAware
05:58PM 41.0910 -77.6000 59° Northeast 437 503 37,000  Level FlightAware
05:59PM 41.1400 -77.4890 60° Northeast 440 506 37,000  Level FlightAware
06:00PM 41.1710 -77.4190 60° Northeast 440 506 37,000  Level FlightAware
06:00PM 41.2080 -77.3340 60° Northeast 439 505 37,000  Level FlightAware
06:01PM 41.2380 -77.2650 60° Northeast 438 504 37,000  Level FlightAware
06:01PM 41.2780 -77.1740 60° Northeast 438 504 37,000  Level FlightAware
06:02PM 41.3080 -77.1040 60° Northeast 438 504 37,000  Level FlightAware
06:03PM 41.3490 -77.0110 60° Northeast 437 503 37,000  Level FlightAware
06:03PM 41.3830 -76.9330 60° Northeast 436 502 37,000  Level FlightAware
06:04PM 41.4150 -76.8590 60° Northeast 437 503 37,000  Level FlightAware
06:04PM 41.4480 -76.7810 61° Northeast 437 503 37,000  Level FlightAware
06:05PM 41.4860 -76.6940 60° Northeast 436 502 37,000  Level FlightAware
06:06PM 41.5240 -76.6050 60° Northeast 437 503 37,000  Level FlightAware
06:06PM 41.5590 -76.5210 61° Northeast 437 503 37,000  Level FlightAware
06:07PM 41.5980 -76.4320 60° Northeast 438 504 37,000  Level FlightAware
06:07PM 41.6330 -76.3490 61° Northeast 439 505 37,000  Level FlightAware
06:08PM 41.6660 -76.2690 61° Northeast 439 505 37,000  Level FlightAware
06:08PM 41.7000 -76.1890 60° Northeast 440 506 37,000  Level FlightAware
06:09PM 41.7350 -76.1060 61° Northeast 441 507 37,000  Level FlightAware
06:10PM 41.7710 -76.0210 60° Northeast 442 509 37,000  Level FlightAware
06:10PM 41.8070 -75.9360 60° Northeast 442 509 37,000  Level FlightAware
06:11PM 41.8330 -75.8710 62° Northeast 442 509 37,000  Level FlightAware
06:11PM 41.8770 -75.7670 60° Northeast 443 510 37,000  Level FlightAware
06:12PM 41.9110 -75.6850 61° Northeast 443 510 37,000  Level FlightAware
06:13PM 41.9480 -75.5950 61° Northeast 444 511 37,000  Level FlightAware
06:13PM 41.9800 -75.5190 60° Northeast 444 511 37,000  Level FlightAware
06:14PM 42.0160 -75.4320 61° Northeast 445 512 37,000  Level FlightAware
06:14PM 42.0520 -75.3430 61° Northeast 445 512 37,000  Level FlightAware
06:15PM 42.0840 -75.2600 63° Northeast 447 514 37,000  Level FlightAware
06:16PM 42.1110 -75.1620 70° East 449 517 37,000  Level FlightAware
06:16PM 42.1310 -75.0850 71° East 449 517 37,000 -540 Level FlightAware
06:17PM 42.1560 -74.9850 71° East 447 514 36,400 -1,140 Descending FlightAware
06:17PM 42.1870 -74.8630 71° East 445 512 35,400 -1,500 Descending FlightAware
06:18PM 42.2100 -74.7690 72° East 431 496 34,500 -2,100 Descending FlightAware
06:19PM 42.2320 -74.6830 71° East 435 501 33,000 -2,220 Descending FlightAware
06:19PM 42.2560 -74.5870 71° East 424 488 31,900 -2,340 Descending FlightAware
06:20PM 42.2780 -74.4940 72° East 429 494 30,200 -2,400 Descending FlightAware
06:20PM 42.2990 -74.4110 71° East 437 503 29,200 -1,080 Descending FlightAware
06:21PM 42.3230 -74.3110 72° East 452 520 29,000 -360 Descending FlightAware
06:22PM 42.3440 -74.2240 72° East 453 521 28,800 -960 Descending FlightAware
06:22PM 42.3650 -74.1370 72° East 443 510 28,000 -1,500 Descending FlightAware
06:23PM 42.3860 -74.0500 72° East 439 505 27,100 -1,500 Descending FlightAware
06:23PM 42.4090 -73.9550 72° East 429 494 26,200 -1,620 Descending FlightAware
06:24PM 42.4350 -73.8480 72° East 423 487 25,100 -1,620 Descending FlightAware
06:25PM 42.4580 -73.7500 72° East 416 479 24,100 -1,500 Descending FlightAware
06:25PM 42.4780 -73.6680 72° East 409 471 23,300 -1,020 Descending FlightAware
06:26PM 42.4980 -73.5830 72° East 404 465 23,000 -600 Descending FlightAware
06:26PM 42.5190 -73.4930 72° East 401 461 22,600 -1,260 Descending FlightAware
06:27PM 42.5360 -73.4200 72° East 395 455 21,600 -2,160 Descending FlightAware
06:28PM 42.5560 -73.3340 72° East 391 450 20,200 -2,160 Descending FlightAware
06:28PM 42.5740 -73.2600 72° East 386 444 19,200 -1,140 Descending FlightAware
06:29PM 42.5920 -73.1810 73° East 383 441 19,000 -180 Descending FlightAware
06:29PM 42.6120 -73.0950 72° East 386 444 19,000  Level FlightAware
06:30PM 42.6320 -73.0090 72° East 387 445 19,000  Level FlightAware
06:30PM 42.6500 -72.9290 73° East 385 443 19,000 -180 Level FlightAware
06:31PM 42.6670 -72.8510 73° East 384 442 18,800 -1,080 Descending FlightAware
06:32PM 42.6800 -72.7720 77° East 376 433 17,800 -1,800 Descending FlightAware
06:32PM 42.6779 -72.7837 256° West 369 425 17,000 -1,920 Descending FlightAware ADS-B (KSNC)
06:33PM 42.7070 -72.6090 77° East 363 418 15,500 -1,920 Descending FlightAware
06:33PM 42.7200 -72.5320 77° East 356 410 14,500 -1,800 Descending FlightAware
06:34PM 42.7330 -72.4570 77° East 349 402 13,400 -1,800 Descending FlightAware
06:34PM 42.7402 -72.4168 76° East 346 398 12,900 -1,500 Descending FlightAware ADS-B (KSNC)
06:35PM 42.7580 -72.3120 77° East 328 377 11,700 -1,200 Descending FlightAware
06:36PM 42.7700 -72.2400 77° East 303 349 11,200 -780 Descending FlightAware
06:36PM 42.7800 -72.1820 77° East 284 327 10,800 -960 Descending FlightAware
06:37PM 42.7900 -72.1200 78° East 275 316 10,100 -1,320 Descending FlightAware
06:37PM 42.7960 -72.0870 76° East 275 316 9,600 -1,440 Descending FlightAware
06:38PM 42.8010 -72.0540 78° East 275 316 9,200 -840 Descending FlightAware
06:38PM 42.8080 -72.0140 77° East 272 313 9,000 -540 Descending FlightAware
06:38PM 42.8110 -71.9920 79° East 269 310 8,900 -1,140 Descending FlightAware
06:38PM 42.8160 -71.9590 78° East 267 307 8,400 -1,500 Descending FlightAware
06:39PM 42.8130 -71.9190 96° East 267 307 7,800 -1,740 Descending FlightAware
06:39PM 42.8100 -71.8850 97° East 265 305 7,100 -1,800 Descending FlightAware
06:40PM 42.8080 -71.8530 95° East 263 303 6,600 -1,740 Descending FlightAware
06:40PM 42.8050 -71.8280 99° East 260 299 6,100 -1,740 Descending FlightAware
06:40PM 42.8020 -71.7920 96° East 254 292 5,500 -1,320 Descending FlightAware
06:41PM 42.7990 -71.7610 98° East 241 277 5,200 -1,380 Descending FlightAware
06:41PM 42.7960 -71.7310 98° East 242 278 4,600 -1,620 Descending FlightAware
06:41PM 42.7930 -71.7020 98° East 242 278 4,100 -1,500 Descending FlightAware
06:41PM 42.7910 -71.6770 96° East 239 275 3,700 -1,260 Descending FlightAware
06:42PM 42.7880 -71.6480 98° East 228 262 3,400 -900 Descending FlightAware
06:42PM 42.7850 -71.6180 98° East 223 257 3,100 -720 Descending FlightAware
06:42PM 42.7830 -71.5910 96° East 222 255 2,900 -300 Descending FlightAware
06:43PM 42.7800 -71.5580 97° East 224 258 2,900  Level FlightAware
06:43PM 42.7790 -71.5400 94° East 224 258 2,900  Level FlightAware
06:43PM 42.7760 -71.5120 98° East 225 259 2,900  Level FlightAware
06:44PM 42.7750 -71.4910 94° East 226 260 2,900  Level FlightAware
06:44PM 42.7800 -71.4440 82° East 209 241 2,900  Level FlightAware
06:44PM 42.7830 -71.4310 73° East 196 226 2,900  Level FlightAware
06:45PM 42.7890 -71.4060 72° East 167 192 2,900 -540 Level FlightAware
06:45PM 42.7930 -71.3940 66° East 158 182 2,600 -1,200 Descending FlightAware
06:45PM 42.7970 -71.3890 43° Northeast 154 177 2,500 -780 Descending FlightAware
06:45PM 42.8060 -71.3790 39° Northeast 142 163 2,300 -540 Descending FlightAware
06:46PM 42.8100 -71.3770 20° North 146 168 2,300  Level FlightAware
06:46PM 42.8230 -71.3720 16° North 147 169 2,300 -480 Level FlightAware
06:46PM 42.8350 -71.3760 346° North 139 160 2,000 -900 Descending FlightAware
06:47PM 42.8470 -71.3830 337° Northwest 132 152 1,700 -780 Descending FlightAware
06:47PM 42.8590 -71.3910 334° Northwest 131 151 1,500 -720 Descending FlightAware
06:47PM 42.8740 -71.4000 336° Northwest 139 160 1,200 -720 Descending FlightAware
06:48PM 42.8850 -71.4060 338° Northwest 138 159 1,000 -720 Descending FlightAware
06:48PM 42.9020 -71.4160 337° Northwest 139 160 600 -840 Descending FlightAware
06:48PM 42.9110 -71.4220 334° Northwest 138 159 400 -420 Descending FlightAware
06:49PM 42.9350 -71.4360 337° Northwest 140 161 200 4,680 Descending FlightAware
06:50PM 42.9650 -71.4583 337° Northwest 134 154 9,000 7,860 Climbing Boston Center